Time;durP1;ratioP1;P1;durP2;ratioP2;P2;SDS_P1;SDS_P2;PMS_P1;PMS_P2;Temp;Humidity;BMP_temperature;BMP_pressure;BME280_temperature;BME280_humidity;BME280_pressure;Samples;Min_cycle;Max_cycle;Signal;HPM_P1;HPM_P2
2021/07/25 00:00:46;;;;;;;11.48;6.75;;;15.20;99.90;;;;;;4978747;28;20043;-96
2021/07/25 00:03:14;;;;;;;11.70;6.30;;;15.10;99.90;;;;;;4975681;28;20041;-96
2021/07/25 00:05:46;;;;;;;11.05;6.78;;;15.10;99.90;;;;;;4977225;28;20058;-96
2021/07/25 00:08:13;;;;;;;12.70;6.68;;;15.00;99.90;;;;;;4993234;28;20027;-96
2021/07/25 00:10:46;;;;;;;14.13;6.32;;;15.10;99.90;;;;;;4976388;28;20121;-96
2021/07/25 00:13:15;;;;;;;12.13;6.35;;;15.00;99.90;;;;;;4975531;28;20066;-96
2021/07/25 00:15:42;;;;;;;10.43;6.22;;;15.00;99.90;;;;;;4959718;28;20041;-96
2021/07/25 00:18:09;;;;;;;12.05;6.57;;;15.00;99.90;;;;;;4977050;28;20039;-96
2021/07/25 00:20:36;;;;;;;8.93;6.35;;;15.00;99.90;;;;;;4977188;28;20026;-96
2021/07/25 00:23:02;;;;;;;13.15;6.50;;;15.00;99.90;;;;;;4972279;28;20501;-96
2021/07/25 00:25:28;;;;;;;11.52;6.43;;;14.90;99.90;;;;;;4975088;28;20019;-96
2021/07/25 00:27:55;;;;;;;11.30;6.28;;;14.90;99.90;;;;;;4977741;28;20050;-96
2021/07/25 00:30:24;;;;;;;12.18;7.72;;;14.90;99.90;;;;;;4958621;28;20031;-96
2021/07/25 00:32:51;;;;;;;13.50;6.63;;;14.90;99.90;;;;;;4975906;28;20037;-96
2021/07/25 00:35:18;;;;;;;12.77;6.68;;;14.90;99.90;;;;;;4974545;28;20054;-96
2021/07/25 00:37:52;;;;;;;13.48;5.93;;;14.90;99.90;;;;;;4978423;28;20038;-96
2021/07/25 00:40:27;;;;;;;9.73;5.90;;;14.90;99.90;;;;;;4982076;28;20007;-95
2021/07/25 00:42:56;;;;;;;12.80;6.40;;;14.90;99.90;;;;;;4975364;28;20047;-96
2021/07/25 00:45:22;;;;;;;11.10;6.65;;;14.90;99.90;;;;;;4973416;28;20037;-96
2021/07/25 00:47:48;;;;;;;12.57;6.50;;;14.90;99.90;;;;;;4969981;28;20118;-96
2021/07/25 00:50:14;;;;;;;9.50;6.35;;;14.80;99.90;;;;;;4971709;28;20051;-95
2021/07/25 00:52:40;;;;;;;11.25;6.30;;;14.80;99.90;;;;;;4973935;28;20038;-95
2021/07/25 00:55:07;;;;;;;14.48;6.53;;;14.80;99.90;;;;;;4973648;28;20023;-96
2021/07/25 00:57:33;;;;;;;10.55;6.03;;;14.80;99.90;;;;;;4973825;28;20037;-96
2021/07/25 01:00:02;;;;;;;9.65;6.20;;;14.80;99.90;;;;;;4970401;28;20094;-96
2021/07/25 01:02:34;;;;;;;15.10;6.57;;;14.80;99.90;;;;;;4972404;28;20050;-96
2021/07/25 01:05:12;;;;;;;9.77;5.75;;;14.70;99.90;;;;;;4974892;28;20053;-96
2021/07/25 01:07:53;;;;;;;10.80;6.88;;;14.70;99.90;;;;;;4992630;28;20031;-96
2021/07/25 01:10:31;;;;;;;8.97;5.83;;;14.70;99.90;;;;;;4973890;28;20019;-96
2021/07/25 01:13:00;;;;;;;10.05;7.55;;;14.70;99.90;;;;;;4965566;28;20043;-96
2021/07/25 01:15:29;;;;;;;12.88;6.97;;;14.70;99.90;;;;;;4968068;28;20022;-96
2021/07/25 01:17:55;;;;;;;12.60;7.20;;;14.60;99.90;;;;;;4964122;28;20034;-96
2021/07/25 01:20:23;;;;;;;13.05;6.75;;;14.60;99.90;;;;;;4985734;28;20057;-96
2021/07/25 01:22:51;;;;;;;12.68;7.53;;;14.60;99.90;;;;;;4968659;28;20050;-96
2021/07/25 01:25:22;;;;;;;15.50;7.22;;;14.60;99.90;;;;;;4970784;28;20019;-96
2021/07/25 01:28:04;;;;;;;11.48;6.97;;;14.50;99.90;;;;;;4967979;28;20437;-96
2021/07/25 01:30:37;;;;;;;14.52;7.72;;;14.60;99.90;;;;;;4969591;28;20035;-96
2021/07/25 01:33:10;;;;;;;12.30;7.80;;;14.50;99.90;;;;;;4967464;28;20035;-96
2021/07/25 01:35:36;;;;;;;11.10;7.57;;;14.50;99.90;;;;;;4968540;28;20082;-96
2021/07/25 01:38:02;;;;;;;16.55;7.80;;;14.50;99.90;;;;;;4964890;28;20046;-96
2021/07/25 01:40:28;;;;;;;12.15;8.00;;;14.40;99.90;;;;;;4966251;28;20026;-96
2021/07/25 01:42:56;;;;;;;19.00;7.75;;;14.40;99.90;;;;;;4966083;28;20054;-95
2021/07/25 01:45:22;;;;;;;11.10;6.78;;;14.40;99.90;;;;;;4966526;28;20039;-96
2021/07/25 01:47:48;;;;;;;11.18;6.13;;;14.40;99.90;;;;;;4963732;28;20058;-95
2021/07/25 01:50:14;;;;;;;14.60;7.57;;;14.40;99.90;;;;;;4961448;28;20022;-95
2021/07/25 01:52:40;;;;;;;13.50;6.53;;;14.30;99.90;;;;;;4960630;28;20121;-96
2021/07/25 01:55:06;;;;;;;14.88;7.10;;;14.30;99.90;;;;;;4961349;28;20046;-96
2021/07/25 01:57:32;;;;;;;11.63;6.35;;;14.30;99.90;;;;;;4961557;28;20480;-96
2021/07/25 01:59:58;;;;;;;12.60;6.32;;;14.30;99.90;;;;;;4962725;28;20058;-95
2021/07/25 02:02:24;;;;;;;11.40;6.40;;;14.30;99.90;;;;;;4961800;28;20035;-96
2021/07/25 02:04:49;;;;;;;11.75;6.28;;;14.30;99.90;;;;;;4963890;28;20027;-93
2021/07/25 02:07:15;;;;;;;13.30;6.28;;;14.30;99.90;;;;;;4963482;28;20023;-96
2021/07/25 02:09:41;;;;;;;12.00;6.45;;;14.30;99.90;;;;;;4965828;28;20031;-96
2021/07/25 02:12:08;;;;;;;10.50;6.40;;;14.30;99.90;;;;;;4965723;28;20029;-96
2021/07/25 02:14:35;;;;;;;10.88;6.68;;;14.20;99.90;;;;;;4967053;28;20039;-96
2021/07/25 02:17:02;;;;;;;14.02;7.13;;;14.30;99.90;;;;;;4962366;28;20411;-96
2021/07/25 02:19:28;;;;;;;12.38;7.18;;;14.30;99.90;;;;;;4963797;28;20070;-96
2021/07/25 02:21:55;;;;;;;13.27;7.03;;;14.30;99.90;;;;;;4962422;28;20026;-96
2021/07/25 02:24:21;;;;;;;13.95;7.30;;;14.30;99.90;;;;;;4973945;28;20033;-95
2021/07/25 02:26:48;;;;;;;11.45;7.03;;;14.30;99.90;;;;;;4972585;28;20034;-96
2021/07/25 02:29:14;;;;;;;14.00;7.05;;;14.30;99.90;;;;;;4964021;28;20027;-96
2021/07/25 02:31:40;;;;;;;15.43;7.10;;;14.30;99.90;;;;;;4963909;28;20061;-96
2021/07/25 02:34:07;;;;;;;12.70;7.53;;;14.30;99.90;;;;;;4965109;28;20042;-96
2021/07/25 02:36:33;;;;;;;12.80;7.60;;;14.30;99.90;;;;;;4962757;28;20027;-96
2021/07/25 02:38:58;;;;;;;12.65;8.25;;;14.20;99.90;;;;;;4959558;28;20374;-95
2021/07/25 02:41:24;;;;;;;15.38;8.77;;;14.30;99.90;;;;;;4958891;28;20015;-94
2021/07/25 02:43:49;;;;;;;16.48;8.45;;;14.30;99.90;;;;;;4958908;28;20030;-95
2021/07/25 02:46:15;;;;;;;14.07;8.20;;;14.30;99.90;;;;;;4959815;28;20031;-95
2021/07/25 02:48:41;;;;;;;17.83;8.35;;;14.20;99.90;;;;;;4959547;28;20105;-96
2021/07/25 02:51:07;;;;;;;17.30;8.43;;;14.20;99.90;;;;;;4959778;28;20047;-95
2021/07/25 02:53:33;;;;;;;16.45;8.82;;;14.20;99.90;;;;;;4959675;28;20066;-95
2021/07/25 02:55:59;;;;;;;14.13;8.95;;;14.20;99.90;;;;;;4959972;28;20030;-96
2021/07/25 02:58:24;;;;;;;15.90;8.52;;;14.20;99.90;;;;;;4969975;28;20093;-96
2021/07/25 03:00:50;;;;;;;12.45;7.65;;;14.20;99.90;;;;;;4963985;28;20026;-96
2021/07/25 03:03:16;;;;;;;15.80;8.13;;;14.20;99.90;;;;;;4963799;28;20481;-95
2021/07/25 03:05:42;;;;;;;19.05;7.90;;;14.10;99.90;;;;;;4963714;28;20027;-95
2021/07/25 03:08:08;;;;;;;19.67;10.60;;;14.10;99.90;;;;;;4964484;28;20038;-96
2021/07/25 03:10:34;;;;;;;14.88;7.88;;;14.10;99.90;;;;;;4964261;28;20045;-95
2021/07/25 03:12:59;;;;;;;14.25;8.00;;;14.10;99.90;;;;;;4964224;28;20074;-96
2021/07/25 03:15:25;;;;;;;11.57;7.18;;;14.10;99.90;;;;;;4965229;28;20070;-95
2021/07/25 03:17:52;;;;;;;12.05;7.22;;;14.10;99.90;;;;;;4969582;28;20034;-95
2021/07/25 03:20:18;;;;;;;15.88;8.77;;;14.10;99.90;;;;;;4974530;28;20029;-95
2021/07/25 03:22:44;;;;;;;16.60;9.40;;;14.10;99.90;;;;;;4973822;28;20023;-94
2021/07/25 03:25:10;;;;;;;18.88;8.93;;;14.00;99.90;;;;;;4948222;28;20037;-95
2021/07/25 03:27:36;;;;;;;16.63;8.45;;;14.00;99.90;;;;;;4963645;28;20117;-96
2021/07/25 03:30:03;;;;;;;17.52;9.70;;;14.00;99.90;;;;;;4971998;28;20030;-96
2021/07/25 03:32:29;;;;;;;19.35;9.13;;;14.00;99.90;;;;;;4973798;28;20551;-95
2021/07/25 03:34:55;;;;;;;22.92;9.63;;;13.90;99.90;;;;;;4976713;28;20043;-96
2021/07/25 03:37:21;;;;;;;15.18;9.63;;;13.90;99.90;;;;;;4973427;28;20062;-95
2021/07/25 03:39:50;;;;;;;14.77;8.50;;;13.90;99.90;;;;;;4974178;28;20057;-95
2021/07/25 03:42:17;;;;;;;14.55;9.38;;;13.90;99.90;;;;;;4977816;28;20030;-95
2021/07/25 03:44:43;;;;;;;17.92;9.23;;;13.90;99.90;;;;;;4982665;28;20023;-95
2021/07/25 03:47:10;;;;;;;16.35;8.60;;;13.90;99.90;;;;;;4980813;28;20118;-96
2021/07/25 03:49:39;;;;;;;17.35;8.82;;;13.90;99.90;;;;;;4984308;28;20118;-95
2021/07/25 03:52:07;;;;;;;18.30;9.32;;;13.90;99.90;;;;;;4983136;28;20042;-96
2021/07/25 03:54:38;;;;;;;16.40;9.55;;;13.90;99.90;;;;;;4973796;28;20031;-95
2021/07/25 03:57:05;;;;;;;15.82;8.88;;;13.90;99.90;;;;;;4966947;28;20019;-96
2021/07/25 03:59:31;;;;;;;18.75;8.75;;;13.90;99.90;;;;;;4950803;28;20049;-96
2021/07/25 04:01:57;;;;;;;18.10;9.98;;;13.90;99.90;;;;;;4967990;28;20055;-96
2021/07/25 04:04:22;;;;;;;16.92;9.07;;;13.90;99.90;;;;;;4967369;28;20044;-96
2021/07/25 04:06:48;;;;;;;16.42;8.23;;;13.90;99.90;;;;;;4971752;28;20023;-95
2021/07/25 04:09:15;;;;;;;11.63;6.72;;;13.90;99.90;;;;;;4979486;28;20031;-95
2021/07/25 04:11:41;;;;;;;16.75;9.55;;;13.90;99.90;;;;;;4978349;28;20041;-95
2021/07/25 04:14:07;;;;;;;21.83;9.70;;;14.00;99.90;;;;;;4966161;28;20039;-94
2021/07/25 04:16:32;;;;;;;19.85;9.70;;;14.00;99.90;;;;;;4965046;28;20023;-95
2021/07/25 04:18:58;;;;;;;15.18;7.95;;;14.00;99.90;;;;;;4966963;28;20023;-95
2021/07/25 04:21:24;;;;;;;17.85;8.70;;;14.00;99.90;;;;;;4966532;28;20022;-95
2021/07/25 04:23:50;;;;;;;18.35;9.88;;;14.10;99.90;;;;;;4965843;28;20038;-95
2021/07/25 04:26:16;;;;;;;15.45;9.48;;;14.10;99.90;;;;;;4968507;28;20050;-96
2021/07/25 04:28:42;;;;;;;13.10;7.75;;;14.10;99.90;;;;;;4966887;28;20126;-96
2021/07/25 04:31:08;;;;;;;15.30;8.10;;;14.10;99.90;;;;;;4966045;28;20057;-96
2021/07/25 04:33:34;;;;;;;15.65;8.65;;;14.20;99.90;;;;;;4969552;28;20038;-95
2021/07/25 04:36:00;;;;;;;16.38;9.23;;;14.20;99.90;;;;;;4971019;28;20025;-95
2021/07/25 04:38:27;;;;;;;12.80;7.70;;;14.20;99.90;;;;;;4975827;28;20062;-96
2021/07/25 04:41:01;;;;;;;13.00;7.32;;;14.30;99.90;;;;;;4975247;28;20493;-96
2021/07/25 04:43:30;;;;;;;15.23;8.02;;;14.30;99.90;;;;;;4972050;28;20062;-95
2021/07/25 04:46:04;;;;;;;13.50;7.60;;;14.40;99.90;;;;;;4971881;28;20031;-95
2021/07/25 04:48:44;;;;;;;17.08;6.65;;;14.40;99.90;;;;;;4969563;28;20085;-96
2021/07/25 04:51:11;;;;;;;15.15;7.15;;;14.40;99.90;;;;;;4967429;28;20053;-96
2021/07/25 04:53:42;;;;;;;12.13;6.47;;;14.50;99.90;;;;;;4968598;28;20042;-96
2021/07/25 04:56:15;;;;;;;8.98;6.43;;;14.50;99.90;;;;;;4969927;28;20058;-96
2021/07/25 04:58:46;;;;;;;12.65;7.38;;;14.50;99.90;;;;;;4967793;28;20039;-96
2021/07/25 05:01:16;;;;;;;10.55;6.70;;;14.50;99.90;;;;;;4965434;28;20096;-95
2021/07/25 05:03:42;;;;;;;;;;;14.50;99.90;;;;;;4965699;28;20042;-95
2021/07/25 05:06:11;;;;;;;9.50;6.22;;;14.60;99.90;;;;;;4971826;28;19906;-95
2021/07/25 05:08:38;;;;;;;11.85;6.57;;;14.60;99.90;;;;;;4971503;28;20090;-96
2021/07/25 05:11:18;;;;;;;10.27;6.35;;;14.60;99.90;;;;;;4964835;28;20521;-94
2021/07/25 05:13:49;;;;;;;11.77;6.20;;;14.70;99.90;;;;;;4965566;28;20485;-95
2021/07/25 05:16:26;;;;;;;;;;;14.70;99.90;;;;;;4965536;28;20029;-96
2021/07/25 05:19:20;;;;;;;15.75;6.65;;;14.70;99.90;;;;;;4964385;28;19910;-96
2021/07/25 05:21:54;;;;;;;13.10;6.25;;;14.70;99.90;;;;;;4963862;28;20031;-96
2021/07/25 05:24:24;;;;;;;12.00;7.05;;;14.80;99.90;;;;;;4947388;28;20034;-96
2021/07/25 05:26:51;;;;;;;16.85;6.72;;;14.80;99.90;;;;;;4962496;28;20365;-96
2021/07/25 05:29:23;;;;;;;8.52;5.88;;;14.80;99.90;;;;;;4961921;28;20031;-96
2021/07/25 05:31:49;;;;;;;11.32;6.40;;;14.90;99.90;;;;;;4961551;28;20037;-96
2021/07/25 05:34:14;;;;;;;10.52;6.07;;;14.90;99.90;;;;;;4962332;28;20038;-95
2021/07/25 05:36:40;;;;;;;11.75;6.20;;;14.90;99.90;;;;;;4962813;28;20393;-96
2021/07/25 05:39:06;;;;;;;11.90;6.93;;;14.90;99.90;;;;;;4962951;28;20035;-96
2021/07/25 05:41:32;;;;;;;9.93;6.72;;;14.90;99.90;;;;;;4963208;28;20036;-96
2021/07/25 05:43:57;;;;;;;15.23;6.05;;;14.90;99.90;;;;;;4962813;28;20400;-96
2021/07/25 05:46:23;;;;;;;13.35;5.63;;;15.00;99.90;;;;;;4962757;28;20031;-95
2021/07/25 05:48:49;;;;;;;12.10;6.40;;;15.00;99.90;;;;;;4962924;28;20081;-95
2021/07/25 05:51:15;;;;;;;10.63;6.95;;;15.00;99.90;;;;;;4970218;28;20031;-94
2021/07/25 05:53:41;;;;;;;13.57;6.13;;;15.10;99.90;;;;;;4965999;28;20047;-96
2021/07/25 05:56:09;;;;;;;9.82;6.32;;;15.10;99.90;;;;;;4962092;28;20121;-96
2021/07/25 05:58:35;;;;;;;11.02;6.28;;;15.10;99.90;;;;;;4962119;28;20031;-95
2021/07/25 06:01:00;;;;;;;8.65;6.05;;;15.10;99.90;;;;;;4965675;28;20021;-96
2021/07/25 06:03:29;;;;;;;15.45;6.75;;;15.10;99.90;;;;;;4978935;28;20039;-96
2021/07/25 06:05:56;;;;;;;9.35;6.40;;;15.20;99.90;;;;;;4982205;28;20030;-96
2021/07/25 06:08:21;;;;;;;11.50;6.53;;;15.20;99.90;;;;;;4967105;28;20023;-96
2021/07/25 06:10:47;;;;;;;16.60;6.45;;;15.20;99.90;;;;;;4963609;28;20050;-95
2021/07/25 06:13:13;;;;;;;14.52;6.57;;;15.20;99.90;;;;;;4962978;28;20090;-96
2021/07/25 06:15:39;;;;;;;12.30;7.05;;;15.30;99.90;;;;;;4963261;28;20257;-96
2021/07/25 06:18:07;;;;;;;13.02;6.80;;;15.30;99.90;;;;;;4963063;28;20035;-96
2021/07/25 06:20:34;;;;;;;15.13;7.63;;;15.40;99.90;;;;;;4963809;28;20030;-96
2021/07/25 06:23:01;;;;;;;12.45;6.72;;;15.40;99.90;;;;;;4965544;28;20030;-96
2021/07/25 06:25:29;;;;;;;11.18;7.32;;;15.50;99.90;;;;;;4966265;28;20022;-96
2021/07/25 06:27:58;;;;;;;13.25;7.22;;;15.40;99.90;;;;;;4965360;28;20436;-95
2021/07/25 06:30:27;;;;;;;12.60;7.10;;;15.50;99.90;;;;;;4965507;28;20027;-96
2021/07/25 06:33:02;;;;;;;17.27;7.60;;;15.50;99.90;;;;;;4966052;28;20271;-96
2021/07/25 06:35:38;;;;;;;11.25;7.57;;;15.50;99.90;;;;;;4971636;28;20035;-96
2021/07/25 06:38:08;;;;;;;12.82;7.22;;;15.60;99.90;;;;;;4976474;28;20082;-96
2021/07/25 06:40:35;;;;;;;16.27;7.70;;;15.60;99.90;;;;;;4973584;28;20034;-96
2021/07/25 06:43:02;;;;;;;12.38;6.90;;;15.60;99.90;;;;;;4967889;28;20185;-96
2021/07/25 06:45:32;;;;;;;12.60;7.28;;;15.70;99.90;;;;;;4964948;28;20026;-96
2021/07/25 06:47:57;;;;;;;13.85;7.90;;;15.70;99.90;;;;;;4963953;28;20058;-96
2021/07/25 06:50:25;;;;;;;10.80;6.72;;;15.70;99.90;;;;;;4949686;28;20027;-96
2021/07/25 06:52:53;;;;;;;14.45;7.10;;;15.80;99.90;;;;;;4964837;28;20035;-96
2021/07/25 06:55:20;;;;;;;12.80;6.63;;;15.80;99.90;;;;;;4964470;28;20027;-96
2021/07/25 06:57:46;;;;;;;13.70;7.43;;;15.90;99.90;;;;;;4966704;28;20081;-96
2021/07/25 07:00:12;;;;;;;10.23;5.80;;;16.00;99.90;;;;;;4963820;28;20094;-96
2021/07/25 07:02:52;;;;;;;10.05;6.10;;;16.00;99.90;;;;;;4967380;28;20031;-96
2021/07/25 07:05:24;;;;;;;22.67;8.07;;;16.10;99.90;;;;;;4966649;28;20045;-96
2021/07/25 07:07:51;;;;;;;9.38;6.60;;;16.10;99.90;;;;;;4966338;28;20027;-96
2021/07/25 07:10:20;;;;;;;15.02;6.55;;;16.20;99.90;;;;;;4966718;28;20027;-96
2021/07/25 07:12:48;;;;;;;9.00;6.20;;;16.10;99.90;;;;;;4967280;28;20027;-95
2021/07/25 07:15:15;;;;;;;14.75;6.35;;;16.20;99.90;;;;;;4966620;28;20045;-95
2021/07/25 07:17:42;;;;;;;12.18;6.88;;;16.20;99.90;;;;;;4965249;28;20061;-95
2021/07/25 07:20:10;;;;;;;10.82;5.93;;;16.30;99.90;;;;;;4977780;28;20035;-94
2021/07/25 07:22:37;;;;;;;9.40;5.85;;;16.30;99.90;;;;;;4974937;28;20034;-96
2021/07/25 07:25:05;;;;;;;12.45;6.57;;;16.40;99.90;;;;;;4968130;28;20031;-95
2021/07/25 07:27:32;;;;;;;14.27;6.97;;;16.50;99.90;;;;;;4961902;28;20027;-95
2021/07/25 07:29:59;;;;;;;9.65;6.30;;;16.50;99.90;;;;;;4961736;28;20039;-95
2021/07/25 07:32:25;;;;;;;15.25;6.68;;;16.60;99.90;;;;;;4961183;28;20050;-95
2021/07/25 07:34:51;;;;;;;13.38;6.82;;;16.60;99.90;;;;;;4960877;28;20031;-95
2021/07/25 07:37:17;;;;;;;16.65;6.40;;;16.70;99.90;;;;;;4961061;28;20098;-95
2021/07/25 07:39:44;;;;;;;11.25;5.88;;;16.70;99.90;;;;;;4960105;28;20030;-94
2021/07/25 07:42:10;;;;;;;11.15;6.13;;;16.80;99.90;;;;;;4960379;28;20039;-94
2021/07/25 07:44:37;;;;;;;15.20;7.10;;;16.80;99.90;;;;;;4964935;28;20042;-95
2021/07/25 07:47:04;;;;;;;10.95;6.07;;;16.90;99.90;;;;;;4963622;28;20496;-96
2021/07/25 07:49:30;;;;;;;11.43;5.65;;;16.90;99.90;;;;;;4963581;28;20121;-95
2021/07/25 07:51:57;;;;;;;10.45;6.00;;;16.90;99.90;;;;;;4971606;28;20031;-95
2021/07/25 07:54:24;;;;;;;7.78;5.35;;;17.00;99.90;;;;;;4980315;28;20046;-96
2021/07/25 07:56:50;;;;;;;9.23;5.90;;;17.00;99.90;;;;;;4964771;28;20480;-95
2021/07/25 07:59:19;;;;;;;10.73;5.57;;;17.00;99.90;;;;;;4965337;28;20030;-95
2021/07/25 08:01:45;;;;;;;11.13;6.22;;;17.00;99.90;;;;;;4966343;28;20037;-96
2021/07/25 08:04:11;;;;;;;13.25;6.40;;;16.90;99.90;;;;;;4968732;28;20023;-96
2021/07/25 08:06:38;;;;;;;9.10;5.35;;;16.90;99.90;;;;;;4963833;28;20034;-95
2021/07/25 08:09:04;;;;;;;11.23;6.35;;;16.90;99.90;;;;;;4964361;28;20469;-95
2021/07/25 08:11:29;;;;;;;11.88;5.95;;;16.90;99.90;;;;;;4970087;28;20034;-94
2021/07/25 08:13:56;;;;;;;13.15;6.88;;;16.90;99.90;;;;;;4970423;28;20102;-96
2021/07/25 08:16:21;;;;;;;10.95;6.00;;;16.90;99.90;;;;;;4971735;28;20030;-96
2021/07/25 08:18:47;;;;;;;10.27;6.18;;;16.90;99.90;;;;;;4971457;28;20030;-94
2021/07/25 08:21:13;;;;;;;14.70;6.03;;;16.90;99.90;;;;;;4969937;28;20026;-96
2021/07/25 08:23:38;;;;;;;9.73;6.22;;;16.90;99.90;;;;;;4969310;28;20030;-96
2021/07/25 08:26:04;;;;;;;11.30;6.40;;;17.00;99.90;;;;;;4969200;28;20042;-96
2021/07/25 08:28:30;;;;;;;10.40;6.20;;;17.00;99.90;;;;;;4963680;28;20050;-95
2021/07/25 08:30:57;;;;;;;12.25;5.97;;;17.10;99.90;;;;;;4963211;28;20046;-95
2021/07/25 08:33:22;;;;;;;12.60;5.95;;;17.10;99.90;;;;;;4963491;28;20039;-95
2021/07/25 08:35:48;;;;;;;12.40;5.60;;;17.20;99.90;;;;;;4965263;28;20556;-95
2021/07/25 08:38:15;;;;;;;10.13;5.63;;;17.20;99.90;;;;;;4965233;28;20030;-96
2021/07/25 08:40:52;;;;;;;9.18;5.80;;;17.20;99.90;;;;;;4964226;28;20031;-95
2021/07/25 08:43:19;;;;;;;9.35;5.53;;;17.30;99.90;;;;;;4963690;28;20026;-95
2021/07/25 08:45:45;;;;;;;10.02;5.35;;;17.40;99.90;;;;;;4965444;28;20027;-95
2021/07/25 08:48:19;;;;;;;12.43;5.80;;;17.50;99.90;;;;;;4966202;28;20114;-96
2021/07/25 08:51:05;;;;;;;10.98;5.65;;;17.60;99.90;;;;;;4965256;28;20042;-96
2021/07/25 08:53:44;;;;;;;10.82;5.38;;;17.70;99.90;;;;;;4966938;28;20126;-95
2021/07/25 08:56:11;;;;;;;9.52;5.63;;;17.80;99.90;;;;;;4930706;28;20121;-95
2021/07/25 08:58:43;;;;;;;10.43;5.88;;;17.90;99.90;;;;;;4963894;28;20058;-95
2021/07/25 09:01:13;;;;;;;11.60;6.60;;;18.10;99.90;;;;;;4963829;28;20038;-95
2021/07/25 09:03:39;;;;;;;13.55;6.10;;;18.20;99.90;;;;;;4963028;28;20031;-94
2021/07/25 09:06:05;;;;;;;9.68;5.95;;;18.20;99.90;;;;;;4963059;28;20023;-95
2021/07/25 09:08:32;;;;;;;9.75;6.28;;;18.30;99.90;;;;;;4961532;28;20118;-95
2021/07/25 09:11:07;;;;;;;10.10;5.97;;;18.30;99.90;;;;;;4960370;28;20023;-95
2021/07/25 09:13:33;;;;;;;11.70;6.05;;;18.40;99.90;;;;;;4961387;28;20050;-96
2021/07/25 09:15:59;;;;;;;10.95;5.63;;;18.40;99.90;;;;;;4959682;28;20026;-95
2021/07/25 09:18:25;;;;;;;9.55;5.57;;;18.50;99.90;;;;;;4960592;28;20603;-95
2021/07/25 09:20:51;;;;;;;11.40;5.53;;;18.50;99.90;;;;;;4960936;28;20336;-95
2021/07/25 09:23:18;;;;;;;10.30;6.43;;;18.60;99.90;;;;;;4969301;28;20026;-96
2021/07/25 09:25:57;;;;;;;16.98;7.03;;;18.70;99.90;;;;;;4963697;28;20026;-94
2021/07/25 09:28:34;;;;;;;12.30;6.72;;;18.70;99.70;;;;;;4961655;28;20095;-96
2021/07/25 09:31:14;;;;;;;10.88;6.15;;;18.70;99.50;;;;;;4961287;28;20019;-96
2021/07/25 09:33:45;;;;;;;14.15;6.47;;;18.80;99.40;;;;;;4961849;28;20034;-96
2021/07/25 09:36:14;;;;;;;17.42;6.70;;;18.70;99.20;;;;;;4959768;28;20508;-96
2021/07/25 09:38:42;;;;;;;10.40;6.00;;;18.80;99.20;;;;;;4959707;28;20495;-96
2021/07/25 09:41:22;;;;;;;14.48;6.05;;;18.80;99.20;;;;;;4959048;28;20026;-95
2021/07/25 09:44:11;;;;;;;11.00;6.10;;;18.90;99.20;;;;;;4959874;28;20118;-94
2021/07/25 09:46:45;;;;;;;10.30;5.40;;;18.90;99.10;;;;;;4961022;28;20034;-95
2021/07/25 09:49:12;;;;;;;10.05;6.20;;;19.00;99.00;;;;;;4962901;28;20046;-94
2021/07/25 09:51:38;;;;;;;9.60;5.75;;;19.00;98.70;;;;;;4962062;28;20061;-94
2021/07/25 09:54:05;;;;;;;12.50;6.10;;;19.00;98.50;;;;;;4959826;28;20047;-94
2021/07/25 09:56:31;;;;;;;11.32;6.93;;;19.00;98.50;;;;;;4959548;28;20035;-95
2021/07/25 09:58:59;;;;;;;11.40;5.93;;;19.00;98.30;;;;;;4960561;28;20480;-94
2021/07/25 10:01:41;;;;;;;12.05;6.18;;;19.00;98.20;;;;;;4959935;28;20129;-95
2021/07/25 10:04:17;;;;;;;10.50;5.82;;;19.00;98.10;;;;;;4961000;28;20027;-95
2021/07/25 10:06:45;;;;;;;8.23;5.55;;;19.00;98.10;;;;;;4959317;28;20129;-95
2021/07/25 10:09:13;;;;;;;10.35;5.60;;;19.00;98.10;;;;;;4958390;28;20022;-95
2021/07/25 10:11:42;;;;;;;8.10;5.75;;;19.00;98.00;;;;;;4958343;28;20093;-94
2021/07/25 10:14:08;;;;;;;9.73;5.97;;;19.10;97.90;;;;;;4958409;28;20034;-95
2021/07/25 10:16:33;;;;;;;7.43;5.30;;;19.10;97.60;;;;;;4959021;28;20450;-95
2021/07/25 10:19:02;;;;;;;9.57;5.30;;;19.10;97.30;;;;;;4959538;28;20038;-95
2021/07/25 10:21:32;;;;;;;10.23;5.85;;;19.20;97.20;;;;;;4961381;28;20109;-94
2021/07/25 10:23:58;;;;;;;8.85;5.45;;;19.20;97.10;;;;;;4976346;28;20104;-94
2021/07/25 10:26:25;;;;;;;9.05;5.70;;;19.30;97.10;;;;;;4965089;28;20027;-96
2021/07/25 10:28:54;;;;;;;9.90;5.85;;;19.40;96.90;;;;;;4958980;28;20027;-94
2021/07/25 10:31:25;;;;;;;10.32;5.68;;;19.40;96.70;;;;;;4958710;28;20121;-95
2021/07/25 10:33:52;;;;;;;8.98;5.63;;;19.60;96.60;;;;;;4958716;28;20069;-95
2021/07/25 10:36:19;;;;;;;9.63;5.68;;;19.70;96.40;;;;;;4958146;28;20465;-95
2021/07/25 10:38:46;;;;;;;9.73;5.43;;;19.80;95.80;;;;;;4958522;28;20121;-94
2021/07/25 10:41:22;;;;;;;10.45;5.72;;;19.90;95.40;;;;;;4958228;28;20034;-95
2021/07/25 10:43:48;;;;;;;9.60;5.82;;;20.10;95.20;;;;;;4958436;28;20031;-96
2021/07/25 10:46:14;;;;;;;9.90;5.88;;;20.20;94.90;;;;;;4963033;28;20022;-96
2021/07/25 10:49:05;;;;;;;9.02;5.53;;;20.30;94.40;;;;;;4959772;28;20401;-95
2021/07/25 10:51:32;;;;;;;11.75;5.53;;;20.40;93.80;;;;;;4961125;28;20520;-96
2021/07/25 10:54:23;;;;;;;11.32;5.68;;;20.50;93.60;;;;;;4958685;28;20039;-96
2021/07/25 10:57:02;;;;;;;8.07;5.18;;;20.60;93.10;;;;;;4958021;28;20039;-96
2021/07/25 10:59:52;;;;;;;7.72;4.60;;;20.70;92.50;;;;;;4960215;28;20019;-96
2021/07/25 11:02:21;;;;;;;13.27;5.80;;;20.90;91.80;;;;;;4959783;28;20085;-95
2021/07/25 11:04:56;;;;;;;9.15;5.20;;;21.00;91.30;;;;;;4958930;28;20034;-96
2021/07/25 11:07:24;;;;;;;8.43;5.50;;;21.10;90.90;;;;;;4962302;28;20034;-95
2021/07/25 11:10:01;;;;;;;7.53;5.88;;;21.20;90.30;;;;;;4972227;28;20065;-95
2021/07/25 11:12:55;;;;;;;9.05;4.75;;;21.30;89.40;;;;;;4959909;28;20114;-96
2021/07/25 11:15:40;;;;;;;7.28;4.68;;;21.50;88.50;;;;;;4961896;28;20031;-96
2021/07/25 11:18:15;;;;;;;6.70;5.03;;;21.80;87.20;;;;;;4959993;28;20041;-95
2021/07/25 11:20:53;;;;;;;6.43;4.47;;;22.10;86.10;;;;;;4963834;28;20081;-96
2021/07/25 11:23:19;;;;;;;7.57;4.38;;;22.30;84.70;;;;;;4964232;28;20035;-96
2021/07/25 11:25:48;;;;;;;6.72;4.72;;;22.40;82.90;;;;;;4971400;28;20022;-95
2021/07/25 11:28:44;;;;;;;7.45;4.35;;;22.50;81.70;;;;;;4978159;28;20033;-96
2021/07/25 11:31:12;;;;;;;6.75;3.95;;;22.50;80.90;;;;;;4966831;28;20078;-96
2021/07/25 11:33:43;;;;;;;9.75;4.95;;;22.70;80.20;;;;;;4975424;28;20102;-95
2021/07/25 11:36:14;;;;;;;9.18;4.78;;;22.80;79.00;;;;;;4975951;28;20027;-95
2021/07/25 11:38:46;;;;;;;7.78;4.80;;;22.90;77.80;;;;;;4964047;28;20035;-96
2021/07/25 11:41:15;;;;;;;7.47;4.93;;;23.10;76.80;;;;;;4951321;28;20043;-96
2021/07/25 11:43:51;;;;;;;8.10;4.85;;;23.40;75.70;;;;;;4968946;28;20027;-95
2021/07/25 11:46:49;;;;;;;9.48;5.03;;;23.70;74.40;;;;;;4968673;28;20027;-96
2021/07/25 11:49:29;;;;;;;10.23;4.40;;;24.00;73.70;;;;;;4935323;28;20130;-95
2021/07/25 11:52:03;;;;;;;11.68;4.55;;;24.20;72.30;;;;;;4965365;28;20034;-96
2021/07/25 11:54:41;;;;;;;11.82;4.97;;;24.30;71.10;;;;;;4971326;28;20043;-96
2021/07/25 11:57:14;;;;;;;9.48;4.70;;;24.40;70.30;;;;;;4973064;28;20031;-96
2021/07/25 11:59:53;;;;;;;7.60;5.00;;;24.40;70.30;;;;;;4975757;28;20027;-96
2021/07/25 12:02:25;;;;;;;8.00;4.53;;;24.50;70.00;;;;;;4977439;28;20030;-96
2021/07/25 12:04:51;;;;;;;10.35;5.78;;;24.50;69.50;;;;;;4973379;28;20109;-96
2021/07/25 12:07:20;;;;;;;7.22;4.55;;;24.70;69.20;;;;;;4970623;28;20102;-96
2021/07/25 12:09:51;;;;;;;7.30;4.38;;;24.70;68.60;;;;;;4969819;28;20580;-95
2021/07/25 12:12:22;;;;;;;7.60;4.32;;;25.00;68.70;;;;;;4972122;28;20038;-96
2021/07/25 12:15:00;;;;;;;7.80;5.28;;;25.30;68.10;;;;;;4978591;28;20043;-96
2021/07/25 12:17:54;;;;;;;7.22;4.70;;;25.60;66.30;;;;;;4974522;28;20022;-96
2021/07/25 12:20:24;;;;;;;6.93;4.50;;;25.80;65.90;;;;;;4971571;28;20082;-96
2021/07/25 12:22:54;;;;;;;9.82;4.68;;;25.80;65.20;;;;;;4967336;28;20027;-96
2021/07/25 12:25:20;;;;;;;8.68;4.53;;;25.80;64.70;;;;;;4966264;28;20023;-96
2021/07/25 12:27:46;;;;;;;7.82;4.50;;;25.80;64.60;;;;;;4965623;28;20506;-96
2021/07/25 12:30:21;;;;;;;8.70;4.50;;;25.80;64.50;;;;;;4969835;28;20027;-96
2021/07/25 12:32:47;;;;;;;10.60;4.30;;;25.80;63.90;;;;;;4972583;28;20046;-95
2021/07/25 12:35:20;;;;;;;8.85;4.22;;;25.80;63.80;;;;;;4967115;28;20041;-96
2021/07/25 12:37:56;;;;;;;7.95;4.70;;;25.80;63.60;;;;;;4968167;28;20019;-96
2021/07/25 12:40:27;;;;;;;6.50;4.07;;;25.60;63.40;;;;;;4963602;28;20605;-96
2021/07/25 12:42:56;;;;;;;6.00;3.97;;;25.50;63.80;;;;;;4963984;28;20030;-96
2021/07/25 12:45:29;;;;;;;6.80;5.22;;;25.70;64.90;;;;;;4966397;28;20113;-96
2021/07/25 12:48:16;;;;;;;6.57;4.75;;;25.90;64.50;;;;;;4966070;28;20058;-96
2021/07/25 12:51:09;;;;;;;7.53;4.25;;;26.00;64.30;;;;;;4964984;28;20396;-96